Time;durP1;ratioP1;P1;durP2;ratioP2;P2;SDS_P1;SDS_P2;PMS_P1;PMS_P2;Temp;Humidity;BMP_temperature;BMP_pressure;BME280_temperature;BME280_humidity;BME280_pressure;Samples;Min_cycle;Max_cycle;Signal;HPM_P1;HPM_P2
2023/08/26 00:00:10;;;;;;;33.67;19.88;;;19.30;99.90;;;;;;4943239;28;20536;-84
2023/08/26 00:02:36;;;;;;;36.65;20.33;;;19.30;99.90;;;;;;4939181;28;20027;-85
2023/08/26 00:05:04;;;;;;;30.92;19.08;;;19.30;99.90;;;;;;4937548;28;20059;-85
2023/08/26 00:07:30;;;;;;;27.83;18.38;;;19.40;99.90;;;;;;4940629;28;20434;-84
2023/08/26 00:09:57;;;;;;;35.35;18.40;;;19.40;99.90;;;;;;4957571;28;20158;-85
2023/08/26 00:12:23;;;;;;;29.00;18.85;;;19.40;99.90;;;;;;4945681;29;20034;-85
2023/08/26 00:14:51;;;;;;;28.80;18.67;;;19.40;99.90;;;;;;4936029;28;20035;-84
2023/08/26 00:17:18;;;;;;;35.38;19.65;;;19.40;99.90;;;;;;4935968;28;20102;-85
2023/08/26 00:19:44;;;;;;;30.15;18.60;;;19.40;99.90;;;;;;4940903;28;20229;-86
2023/08/26 00:22:10;;;;;;;31.42;18.77;;;19.30;99.90;;;;;;4939330;28;20027;-85
2023/08/26 00:24:36;;;;;;;29.48;18.63;;;19.30;99.90;;;;;;4941197;28;20306;-85
2023/08/26 00:27:02;;;;;;;31.60;18.38;;;19.20;99.90;;;;;;4942682;28;20035;-85
2023/08/26 00:29:28;;;;;;;33.00;19.10;;;19.30;99.90;;;;;;4941878;28;20023;-85
2023/08/26 00:31:54;;;;;;;29.27;18.38;;;19.20;99.90;;;;;;4945699;28;20090;-86
2023/08/26 00:34:19;;;;;;;32.40;19.55;;;19.30;99.90;;;;;;4950020;28;20098;-85
2023/08/26 00:36:45;;;;;;;30.30;19.15;;;19.30;99.90;;;;;;4952085;29;20039;-85
2023/08/26 00:39:10;;;;;;;34.97;19.52;;;19.20;99.90;;;;;;4938957;28;20039;-83
2023/08/26 00:41:36;;;;;;;30.73;18.70;;;19.20;99.90;;;;;;4945604;28;20403;-85
2023/08/26 00:44:02;;;;;;;31.27;19.60;;;19.10;99.90;;;;;;4937522;28;20019;-85
2023/08/26 00:46:31;;;;;;;31.90;20.52;;;19.00;99.90;;;;;;4942032;29;20024;-85
2023/08/26 00:48:58;;;;;;;32.60;19.60;;;19.00;99.90;;;;;;4944323;28;20082;-85
2023/08/26 00:51:24;;;;;;;34.08;21.08;;;19.00;99.90;;;;;;4941187;28;20061;-85
2023/08/26 00:53:52;;;;;;;32.55;18.90;;;19.00;99.90;;;;;;4938489;28;20060;-85
2023/08/26 00:56:20;;;;;;;37.78;20.52;;;19.00;99.90;;;;;;4942287;28;20031;-85
2023/08/26 00:58:46;;;;;;;33.25;20.83;;;18.90;99.90;;;;;;4947878;28;20467;-84
2023/08/26 01:01:13;;;;;;;35.53;21.65;;;18.90;99.90;;;;;;4938210;29;20026;-85
2023/08/26 01:03:41;;;;;;;35.10;20.98;;;18.90;99.90;;;;;;4942049;28;20204;-85
2023/08/26 01:06:07;;;;;;;39.05;21.17;;;18.90;99.90;;;;;;4941361;28;20071;-85
2023/08/26 01:08:35;;;;;;;44.67;23.02;;;19.00;99.90;;;;;;4940462;28;20487;-86
2023/08/26 01:11:22;;;;;;;34.67;22.50;;;18.90;99.90;;;;;;4940226;28;20036;-85
2023/08/26 01:14:16;;;;;;;38.17;22.08;;;18.90;99.90;;;;;;4944729;28;20061;-85
2023/08/26 01:16:42;;;;;;;37.38;23.50;;;18.90;99.90;;;;;;4944937;28;20561;-85
2023/08/26 01:19:32;;;;;;;37.92;22.90;;;18.90;99.90;;;;;;4938880;28;20028;-86
2023/08/26 01:22:03;;;;;;;35.60;20.65;;;18.90;99.90;;;;;;4940870;28;20345;-85
2023/08/26 01:24:29;;;;;;;36.13;21.23;;;18.90;99.90;;;;;;4943067;28;20078;-86
2023/08/26 01:26:54;;;;;;;141.40;71.85;;;18.80;99.90;;;;;;4941665;28;20441;-85
2023/08/26 01:29:20;;;;;;;26.83;18.50;;;18.80;99.90;;;;;;4941477;28;20488;-86
2023/08/26 01:32:09;;;;;;;34.22;17.15;;;18.80;99.90;;;;;;4941667;29;20035;-86
2023/08/26 01:34:37;;;;;;;34.72;17.23;;;18.80;99.90;;;;;;4943852;28;20115;-85
2023/08/26 01:37:04;;;;;;;28.60;16.75;;;18.70;99.90;;;;;;4945819;29;20321;-86
2023/08/26 01:39:30;;;;;;;27.98;16.02;;;18.70;99.90;;;;;;4960038;28;20016;-85
2023/08/26 01:41:58;;;;;;;26.23;15.05;;;18.60;99.90;;;;;;4950110;28;20550;-86
2023/08/26 01:44:26;;;;;;;35.13;16.52;;;18.70;99.90;;;;;;4941471;28;20249;-86
2023/08/26 01:46:54;;;;;;;26.08;15.88;;;18.60;99.90;;;;;;4939755;28;20024;-86
2023/08/26 01:49:23;;;;;;;25.75;15.43;;;18.70;99.90;;;;;;4940486;28;20147;-86
2023/08/26 01:51:49;;;;;;;26.10;16.63;;;18.60;99.90;;;;;;4955520;28;20130;-86
2023/08/26 01:54:15;;;;;;;32.45;19.35;;;18.50;99.90;;;;;;4941139;28;20147;-86
2023/08/26 01:56:40;;;;;;;32.03;17.70;;;18.50;99.90;;;;;;4937423;28;20034;-87
2023/08/26 01:59:06;;;;;;;29.38;17.98;;;18.50;99.90;;;;;;4942332;28;20032;-86
2023/08/26 02:01:34;;;;;;;32.35;20.30;;;18.40;99.90;;;;;;4939753;28;20028;-86
2023/08/26 02:04:03;;;;;;;36.35;18.83;;;18.50;99.90;;;;;;4940950;28;20031;-87
2023/08/26 02:06:37;;;;;;;36.65;22.83;;;18.50;99.90;;;;;;4940934;29;20372;-86
2023/08/26 02:09:03;;;;;;;34.63;20.05;;;18.40;99.90;;;;;;4944553;28;20082;-80
2023/08/26 02:11:31;;;;;;;23.88;16.65;;;18.20;99.90;;;;;;4942573;28;20031;-82
2023/08/26 02:13:56;;;;;;;23.35;13.40;;;18.00;99.90;;;;;;4942652;28;20484;-83
2023/08/26 02:16:22;;;;;;;25.65;13.82;;;17.80;99.90;;;;;;4943138;29;20039;-80
2023/08/26 02:18:48;;;;;;;16.27;12.60;;;17.60;99.90;;;;;;4941699;28;20426;-81
2023/08/26 02:21:16;;;;;;;18.52;11.82;;;17.40;99.90;;;;;;4942286;28;20031;-81
2023/08/26 02:23:42;;;;;;;19.77;12.25;;;17.30;99.90;;;;;;4944401;28;20031;-81
2023/08/26 02:26:07;;;;;;;25.23;12.65;;;17.30;99.90;;;;;;4940646;29;20042;-81
2023/08/26 02:28:35;;;;;;;22.13;12.38;;;17.30;99.90;;;;;;4946883;28;20027;-81
2023/08/26 02:31:04;;;;;;;20.23;11.60;;;17.30;99.90;;;;;;4939711;28;20511;-81
2023/08/26 02:33:30;;;;;;;24.50;14.23;;;17.20;99.90;;;;;;4940870;28;20035;-80
2023/08/26 02:35:56;;;;;;;23.35;13.55;;;17.00;99.90;;;;;;4941854;28;20032;-80
2023/08/26 02:38:21;;;;;;;25.65;12.13;;;17.00;99.90;;;;;;4940413;28;20130;-80
2023/08/26 02:40:56;;;;;;;16.83;10.50;;;17.00;99.90;;;;;;4942051;28;20027;-81
2023/08/26 02:43:22;;;;;;;21.42;11.05;;;16.90;99.90;;;;;;4941047;28;20032;-83
2023/08/26 02:45:55;;;;;;;22.42;10.82;;;16.80;99.90;;;;;;4943655;29;20547;-82
2023/08/26 02:48:21;;;;;;;;;;;16.80;99.90;;;;;;4939003;28;20032;-82
2023/08/26 02:50:47;;;;;;;18.88;8.65;;;16.70;99.90;;;;;;4957672;28;19914;-82
2023/08/26 02:53:13;;;;;;;15.35;8.13;;;16.80;99.90;;;;;;4939412;28;20027;-82
2023/08/26 02:55:43;;;;;;;17.40;7.20;;;16.60;99.90;;;;;;4940477;29;20023;-82
2023/08/26 02:58:08;;;;;;;14.60;6.40;;;16.60;99.90;;;;;;4944549;28;20030;-83
2023/08/26 03:00:34;;;;;;;12.32;7.38;;;16.50;99.90;;;;;;4941130;29;20024;-81
2023/08/26 03:03:00;;;;;;;17.77;6.53;;;16.50;99.90;;;;;;4940637;29;20038;-82
2023/08/26 03:05:25;;;;;;;12.55;4.63;;;16.50;99.90;;;;;;4943216;29;20031;-83
2023/08/26 03:07:51;;;;;;;10.93;4.93;;;16.30;99.90;;;;;;4957277;28;20070;-81
2023/08/26 03:10:19;;;;;;;9.10;4.53;;;16.20;99.90;;;;;;4955401;28;20058;-82
2023/08/26 03:12:44;;;;;;;13.25;5.40;;;16.30;99.90;;;;;;4942707;28;20036;-81
2023/08/26 03:15:10;;;;;;;15.05;4.15;;;16.20;99.90;;;;;;4941275;28;20045;-82
2023/08/26 03:17:36;;;;;;;8.13;3.70;;;16.20;99.90;;;;;;4940682;28;20150;-82
2023/08/26 03:20:01;;;;;;;7.60;3.50;;;16.10;99.90;;;;;;4956095;28;20038;-80
2023/08/26 03:22:27;;;;;;;8.80;3.22;;;16.10;99.90;;;;;;4940052;28;20574;-83
2023/08/26 03:24:52;;;;;;;9.32;3.20;;;16.10;99.90;;;;;;4941773;28;20023;-81
2023/08/26 03:27:20;;;;;;;11.15;3.63;;;16.00;99.90;;;;;;4939808;29;20027;-81
2023/08/26 03:29:46;;;;;;;7.15;2.88;;;15.90;99.90;;;;;;4938686;28;20032;-82
2023/08/26 03:32:12;;;;;;;9.48;3.53;;;15.80;99.90;;;;;;4941692;28;20027;-80
2023/08/26 03:34:37;;;;;;;11.38;3.40;;;15.80;99.90;;;;;;4947637;29;20488;-80
2023/08/26 03:37:05;;;;;;;13.60;2.97;;;15.80;99.90;;;;;;4946011;29;20057;-81
2023/08/26 03:39:32;;;;;;;4.95;2.70;;;15.80;99.90;;;;;;4943990;29;20031;-81
2023/08/26 03:42:00;;;;;;;12.07;3.05;;;15.70;99.90;;;;;;4938883;28;20024;-81
2023/08/26 03:44:25;;;;;;;8.25;2.45;;;15.70;99.90;;;;;;4955298;28;20139;-81
2023/08/26 03:46:51;;;;;;;14.02;3.13;;;15.70;99.90;;;;;;4937083;29;20102;-81
2023/08/26 03:49:18;;;;;;;3.92;2.10;;;15.70;99.90;;;;;;4940604;29;20058;-82
2023/08/26 03:51:47;;;;;;;3.95;2.40;;;15.70;99.90;;;;;;4941983;29;20039;-82
2023/08/26 03:54:12;;;;;;;9.48;2.60;;;15.60;99.90;;;;;;4943938;29;20020;-81
2023/08/26 03:56:40;;;;;;;6.50;2.35;;;15.60;99.90;;;;;;4945317;28;20109;-81
2023/08/26 03:59:06;;;;;;;13.63;2.65;;;15.60;99.90;;;;;;4954244;28;20020;-80
2023/08/26 04:01:32;;;;;;;6.55;2.47;;;15.60;99.90;;;;;;4941208;28;20027;-81
2023/08/26 04:03:58;;;;;;;8.93;2.88;;;15.40;99.90;;;;;;4956074;28;20037;-81
2023/08/26 04:06:23;;;;;;;4.30;2.25;;;15.50;99.90;;;;;;4938535;29;20027;-81
2023/08/26 04:08:49;;;;;;;9.52;2.72;;;15.40;99.90;;;;;;4941071;29;20023;-81
2023/08/26 04:11:17;;;;;;;10.57;2.50;;;15.30;99.90;;;;;;4937945;28;20031;-81
2023/08/26 04:13:43;;;;;;;20.80;3.67;;;15.30;99.90;;;;;;4939007;28;20015;-81
2023/08/26 04:16:08;;;;;;;11.57;2.55;;;15.40;99.90;;;;;;4943015;28;20106;-81
2023/08/26 04:18:34;;;;;;;9.40;2.88;;;15.30;99.90;;;;;;4941908;28;20438;-81
2023/08/26 04:21:00;;;;;;;6.60;2.40;;;15.20;99.90;;;;;;4945193;29;20023;-85
2023/08/26 04:23:25;;;;;;;9.23;2.35;;;15.20;99.90;;;;;;4940179;28;20027;-85
2023/08/26 04:25:54;;;;;;;9.88;2.45;;;15.20;99.90;;;;;;4938066;29;20034;-85
2023/08/26 04:28:19;;;;;;;6.60;3.03;;;15.20;99.90;;;;;;4944329;28;20024;-85
2023/08/26 04:30:45;;;;;;;8.35;2.40;;;15.00;99.90;;;;;;4940887;28;20551;-85
2023/08/26 04:33:11;;;;;;;5.18;2.30;;;15.00;99.90;;;;;;4940240;28;20066;-85
2023/08/26 04:35:37;;;;;;;4.97;2.67;;;14.90;99.90;;;;;;4937856;28;20024;-86
2023/08/26 04:38:03;;;;;;;5.00;2.42;;;15.00;99.90;;;;;;4944601;29;20434;-85
2023/08/26 04:40:29;;;;;;;9.95;2.90;;;14.80;99.90;;;;;;4942410;28;20027;-85
2023/08/26 04:42:56;;;;;;;6.60;2.72;;;14.90;99.90;;;;;;4941536;28;20129;-85
2023/08/26 04:45:22;;;;;;;11.85;3.90;;;14.90;99.90;;;;;;4940695;28;20063;-85
2023/08/26 04:47:48;;;;;;;4.80;2.20;;;14.80;99.90;;;;;;4942935;28;20034;-85
2023/08/26 04:50:14;;;;;;;6.38;3.03;;;14.80;99.90;;;;;;4961239;28;20098;-85
2023/08/26 04:52:40;;;;;;;9.52;2.75;;;14.80;99.90;;;;;;4941807;28;20043;-85
2023/08/26 04:55:07;;;;;;;3.63;2.47;;;14.80;99.90;;;;;;4945097;28;20034;-84
2023/08/26 04:57:33;;;;;;;7.13;2.75;;;14.80;99.90;;;;;;4946833;28;20034;-85
2023/08/26 05:00:02;;;;;;;16.42;3.13;;;14.70;99.90;;;;;;4940210;28;20151;-86
2023/08/26 05:02:28;;;;;;;6.55;2.80;;;14.70;99.90;;;;;;4946301;28;20027;-85
2023/08/26 05:04:54;;;;;;;5.25;2.55;;;14.70;99.90;;;;;;4942403;28;20519;-85
2023/08/26 05:07:20;;;;;;;6.40;2.95;;;14.70;99.90;;;;;;4942797;29;20045;-85
2023/08/26 05:09:47;;;;;;;9.40;3.22;;;14.60;99.90;;;;;;4942600;29;20090;-85
2023/08/26 05:12:12;;;;;;;9.43;3.17;;;14.60;99.90;;;;;;4941452;28;20503;-85
2023/08/26 05:14:38;;;;;;;10.00;2.80;;;14.60;99.90;;;;;;4940960;28;20031;-85
2023/08/26 05:17:04;;;;;;;6.78;2.53;;;14.70;99.90;;;;;;4942000;29;20059;-85
2023/08/26 05:19:29;;;;;;;10.48;3.22;;;14.60;99.90;;;;;;4957310;28;20038;-86
2023/08/26 05:21:55;;;;;;;5.70;2.75;;;14.60;99.90;;;;;;4946640;28;20383;-85
2023/08/26 05:24:23;;;;;;;10.13;2.75;;;14.50;99.90;;;;;;4957340;28;20015;-86
2023/08/26 05:26:51;;;;;;;11.10;3.13;;;14.70;99.90;;;;;;4945341;28;20089;-86
2023/08/26 05:29:16;;;;;;;8.13;2.60;;;14.70;99.90;;;;;;4947526;28;20043;-85
2023/08/26 05:31:42;;;;;;;6.32;2.35;;;14.80;99.90;;;;;;4981434;28;20040;-85
2023/08/26 05:34:08;;;;;;;3.28;2.40;;;14.80;99.90;;;;;;4944676;28;20155;-85
2023/08/26 05:36:33;;;;;;;9.50;2.65;;;14.90;99.90;;;;;;4941257;29;20082;-85
2023/08/26 05:38:59;;;;;;;12.10;2.70;;;15.00;99.90;;;;;;4945574;28;20027;-86
2023/08/26 05:41:25;;;;;;;20.00;2.70;;;15.00;99.90;;;;;;4946787;28;20055;-82
2023/08/26 05:43:50;;;;;;;9.07;3.45;;;15.00;99.90;;;;;;4949628;28;20031;-86
2023/08/26 05:46:16;;;;;;;10.13;2.70;;;15.00;99.90;;;;;;4945983;29;20026;-86
2023/08/26 05:48:42;;;;;;;6.63;2.50;;;14.90;99.90;;;;;;4946790;29;20598;-85
2023/08/26 05:51:07;;;;;;;4.95;2.28;;;15.10;99.90;;;;;;4951766;29;20035;-85
2023/08/26 05:53:33;;;;;;;7.05;2.80;;;15.20;99.90;;;;;;4943079;28;20059;-85
2023/08/26 05:55:59;;;;;;;6.30;2.30;;;15.20;99.90;;;;;;4943038;28;20464;-86
2023/08/26 05:58:24;;;;;;;6.95;2.80;;;15.30;99.90;;;;;;4947891;28;20314;-84
2023/08/26 06:00:52;;;;;;;6.97;2.15;;;15.30;99.90;;;;;;4943399;28;20031;-84
2023/08/26 06:03:18;;;;;;;3.60;2.65;;;15.30;99.90;;;;;;4959680;28;20039;-86
2023/08/26 06:05:44;;;;;;;7.68;2.72;;;15.30;99.90;;;;;;4959320;28;20080;-86
2023/08/26 06:08:09;;;;;;;6.28;2.63;;;15.30;99.90;;;;;;4959778;28;20027;-86
2023/08/26 06:10:38;;;;;;;5.93;2.40;;;15.50;99.90;;;;;;4947039;28;20064;-82
2023/08/26 06:13:04;;;;;;;9.00;3.05;;;15.50;99.90;;;;;;4958293;28;20038;-86
2023/08/26 06:15:30;;;;;;;5.97;2.97;;;15.60;99.90;;;;;;4945985;29;20082;-85
2023/08/26 06:17:59;;;;;;;6.85;2.92;;;15.50;99.90;;;;;;4944782;29;20027;-86
2023/08/26 06:20:26;;;;;;;7.18;3.28;;;15.40;99.90;;;;;;4944525;28;20015;-87
2023/08/26 06:22:52;;;;;;;5.75;3.58;;;15.60;99.90;;;;;;4961917;28;20019;-87
2023/08/26 06:25:17;;;;;;;6.15;3.28;;;15.60;99.90;;;;;;4948674;28;20168;-87
2023/08/26 06:27:43;;;;;;;8.68;4.28;;;15.70;99.90;;;;;;4962275;28;20055;-86
2023/08/26 06:30:09;;;;;;;6.22;2.88;;;15.70;99.90;;;;;;4944319;29;20102;-85
2023/08/26 06:32:34;;;;;;;9.27;2.97;;;15.70;99.90;;;;;;4949429;28;20106;-87
2023/08/26 06:35:00;;;;;;;8.25;2.90;;;15.90;99.90;;;;;;4980268;28;20031;-87
2023/08/26 06:37:26;;;;;;;14.20;2.88;;;16.00;99.90;;;;;;4962240;28;20033;-85
2023/08/26 06:39:52;;;;;;;7.43;3.25;;;16.00;99.90;;;;;;4953549;28;20015;-86
2023/08/26 06:42:17;;;;;;;5.90;2.83;;;16.00;99.90;;;;;;4947465;28;20054;-86
2023/08/26 06:44:43;;;;;;;6.82;2.92;;;16.10;99.90;;;;;;4945761;29;20027;-87
2023/08/26 06:47:12;;;;;;;6.90;2.67;;;16.20;99.90;;;;;;4961490;28;20031;-86
2023/08/26 06:49:40;;;;;;;5.45;2.53;;;16.30;99.90;;;;;;4942830;28;20034;-86
2023/08/26 06:52:06;;;;;;;7.63;2.58;;;16.30;99.90;;;;;;4942332;29;20384;-86
2023/08/26 06:54:33;;;;;;;7.97;2.42;;;16.30;99.90;;;;;;4960994;28;20038;-86
2023/08/26 06:56:59;;;;;;;12.63;3.10;;;16.30;99.90;;;;;;4946562;28;20043;-85
2023/08/26 06:59:27;;;;;;;5.60;2.40;;;16.30;99.90;;;;;;4943138;28;20031;-86
2023/08/26 07:01:55;;;;;;;6.22;2.50;;;16.40;99.90;;;;;;4962564;28;20050;-86
2023/08/26 07:04:24;;;;;;;8.40;2.47;;;16.50;99.90;;;;;;4944977;29;20031;-87
2023/08/26 07:06:50;;;;;;;7.63;1.95;;;16.60;99.90;;;;;;4961821;28;20034;-86
2023/08/26 07:09:16;;;;;;;6.90;2.60;;;16.60;99.90;;;;;;4957611;28;20031;-85
2023/08/26 07:11:42;;;;;;;5.78;2.38;;;16.70;99.90;;;;;;4944500;28;20055;-88
2023/08/26 07:14:09;;;;;;;3.92;2.22;;;16.60;99.90;;;;;;4946917;28;20039;-81
2023/08/26 07:16:35;;;;;;;6.45;2.35;;;16.70;99.90;;;;;;4944006;28;20051;-83
2023/08/26 07:19:01;;;;;;;4.68;2.00;;;16.60;99.90;;;;;;4958943;28;20051;-82
2023/08/26 07:21:26;;;;;;;6.75;2.38;;;16.70;99.90;;;;;;4944269;29;20077;-82
2023/08/26 07:23:52;;;;;;;5.95;1.92;;;16.80;99.90;;;;;;4944941;28;20561;-85
2023/08/26 07:26:21;;;;;;;6.90;2.35;;;16.80;99.90;;;;;;4957387;28;20024;-81
2023/08/26 07:28:48;;;;;;;10.30;2.30;;;16.80;99.90;;;;;;4942372;28;20086;-82
2023/08/26 07:31:14;;;;;;;8.63;2.28;;;16.90;99.90;;;;;;4939723;28;20029;-81
2023/08/26 07:33:39;;;;;;;7.10;2.08;;;17.00;99.90;;;;;;4957648;28;20571;-81
2023/08/26 07:36:06;;;;;;;6.63;1.92;;;17.00;99.90;;;;;;4945753;28;20023;-85
2023/08/26 07:38:33;;;;;;;6.03;2.13;;;17.00;99.90;;;;;;4964800;28;20083;-86
2023/08/26 07:40:59;;;;;;;6.40;2.28;;;17.00;99.90;;;;;;4949094;28;20039;-86
2023/08/26 07:43:25;;;;;;;5.03;2.33;;;17.10;99.90;;;;;;4963896;28;20027;-86
2023/08/26 07:45:50;;;;;;;4.40;2.10;;;17.10;99.90;;;;;;4947398;28;20024;-86
2023/08/26 07:48:16;;;;;;;4.45;1.92;;;17.00;99.90;;;;;;4940804;28;20039;-86
2023/08/26 07:50:42;;;;;;;5.13;2.35;;;17.20;99.90;;;;;;4946268;28;20027;-85
2023/08/26 07:53:10;;;;;;;5.63;1.88;;;17.30;99.90;;;;;;4944700;28;20504;-87
2023/08/26 07:55:35;;;;;;;4.53;1.75;;;17.40;99.90;;;;;;4941961;28;20083;-85
2023/08/26 07:58:01;;;;;;;5.03;2.15;;;17.40;99.90;;;;;;4951369;28;20129;-87
2023/08/26 08:00:27;;;;;;;6.72;2.10;;;17.30;99.90;;;;;;4959352;28;20031;-86
2023/08/26 08:02:55;;;;;;;12.27;2.28;;;17.30;99.90;;;;;;4954816;28;20027;-85
2023/08/26 08:05:20;;;;;;;6.82;2.00;;;17.40;99.90;;;;;;4947196;29;20030;-86
2023/08/26 08:07:46;;;;;;;7.30;1.88;;;17.50;99.90;;;;;;4941708;28;20043;-86
2023/08/26 08:10:12;;;;;;;3.42;1.98;;;17.60;99.90;;;;;;4956360;28;20058;-86
2023/08/26 08:12:37;;;;;;;7.32;2.33;;;17.70;99.90;;;;;;4945640;28;20034;-87
2023/08/26 08:15:06;;;;;;;5.03;2.33;;;17.80;99.90;;;;;;4942847;28;20452;-87
2023/08/26 08:17:32;;;;;;;11.45;2.40;;;17.80;99.90;;;;;;4958684;28;20377;-86
2023/08/26 08:19:58;;;;;;;7.78;2.30;;;17.80;99.90;;;;;;4943473;28;20046;-89
2023/08/26 08:22:35;;;;;;;10.38;2.15;;;17.90;99.90;;;;;;4944346;28;20020;-87
2023/08/26 08:25:02;;;;;;;11.85;2.20;;;18.10;99.90;;;;;;4943404;28;20032;-85
2023/08/26 08:27:28;;;;;;;6.97;1.90;;;18.10;99.90;;;;;;4960518;28;20080;-87
2023/08/26 08:29:57;;;;;;;3.70;2.17;;;18.10;99.90;;;;;;4944917;29;20258;-86
2023/08/26 08:32:25;;;;;;;8.40;2.25;;;18.20;99.90;;;;;;4956920;28;20398;-87
2023/08/26 08:34:51;;;;;;;4.47;2.10;;;18.40;99.90;;;;;;4942345;28;20083;-86
2023/08/26 08:37:16;;;;;;;8.90;1.73;;;18.60;99.90;;;;;;4957287;28;20028;-85
2023/08/26 08:39:42;;;;;;;6.05;1.75;;;18.70;99.90;;;;;;4943259;28;20054;-81
2023/08/26 08:42:15;;;;;;;5.85;1.73;;;18.70;99.90;;;;;;4943726;28;20027;-81
2023/08/26 08:44:42;;;;;;;3.95;2.30;;;18.80;99.90;;;;;;4961053;28;20024;-82
2023/08/26 08:47:08;;;;;;;5.55;2.55;;;18.70;99.90;;;;;;4940925;28;20051;-81
2023/08/26 08:49:34;;;;;;;4.55;1.88;;;18.70;99.90;;;;;;4943255;29;20035;-80
2023/08/26 08:52:04;;;;;;;9.57;1.92;;;18.70;99.90;;;;;;4939614;28;20030;-82
2023/08/26 08:54:32;;;;;;;97.70;49.60;;;18.70;99.90;;;;;;4942172;29;20042;-86
2023/08/26 08:56:58;;;;;;;5.10;1.88;;;18.90;99.90;;;;;;4946498;28;20452;-88
2023/08/26 08:59:26;;;;;;;6.30;1.90;;;18.80;99.90;;;;;;4937813;28;20462;-86
2023/08/26 09:01:57;;;;;;;2.33;1.50;;;19.00;99.90;;;;;;4940945;28;20046;-85
2023/08/26 09:04:24;;;;;;;7.40;1.88;;;19.20;99.60;;;;;;4939101;28;20027;-84
2023/08/26 09:06:52;;;;;;;4.80;1.70;;;19.30;99.30;;;;;;4946283;28;20055;-82
2023/08/26 09:09:18;;;;;;;3.90;1.70;;;19.50;99.90;;;;;;4941792;28;20019;-81
2023/08/26 09:11:46;;;;;;;3.20;1.70;;;19.50;99.50;;;;;;4942751;28;20063;-81
2023/08/26 09:14:12;;;;;;;2.40;1.50;;;19.80;97.70;;;;;;4945408;29;20126;-81
2023/08/26 09:16:39;;;;;;;1.58;1.30;;;19.70;98.00;;;;;;4943155;29;20102;-82
2023/08/26 09:19:06;;;;;;;4.85;2.00;;;20.00;97.00;;;;;;4958352;28;20424;-82
2023/08/26 09:21:31;;;;;;;6.35;2.00;;;19.90;96.30;;;;;;4942707;28;20032;-82
2023/08/26 09:24:00;;;;;;;4.45;1.45;;;19.90;96.20;;;;;;4939769;29;20019;-84
2023/08/26 09:26:26;;;;;;;3.85;1.63;;;20.10;95.20;;;;;;4945135;28;20859;-83
2023/08/26 09:28:52;;;;;;;6.50;1.90;;;20.40;95.70;;;;;;4946202;29;20024;-82
2023/08/26 09:31:19;;;;;;;4.80;1.77;;;20.60;95.00;;;;;;4941550;28;20050;-83
2023/08/26 09:33:51;;;;;;;2.70;1.80;;;20.80;94.50;;;;;;4947212;28;20063;-82
2023/08/26 09:36:17;;;;;;;6.20;2.05;;;20.90;94.10;;;;;;4940422;28;20043;-82
2023/08/26 09:38:50;;;;;;;9.70;1.80;;;21.00;93.60;;;;;;4953412;29;20447;-83
2023/08/26 09:41:23;;;;;;;5.50;1.88;;;21.00;93.40;;;;;;4959593;28;20031;-79
2023/08/26 09:43:49;;;;;;;1.85;1.60;;;21.20;93.40;;;;;;4945385;29;20035;-83
2023/08/26 09:46:21;;;;;;;6.50;2.03;;;21.20;93.10;;;;;;4938438;28;20024;-80
2023/08/26 09:48:49;;;;;;;5.47;1.95;;;21.40;93.80;;;;;;4941138;28;20027;-83
2023/08/26 09:51:27;;;;;;;3.65;1.92;;;21.40;93.00;;;;;;4943338;28;20063;-81
2023/08/26 09:53:54;;;;;;;3.22;2.10;;;21.70;93.30;;;;;;4945860;29;20023;-81
2023/08/26 09:56:23;;;;;;;2.35;2.15;;;21.90;92.20;;;;;;4953075;28;20692;-81
2023/08/26 09:58:49;;;;;;;5.03;2.30;;;21.70;92.20;;;;;;4970516;28;20016;-83
2023/08/26 10:01:17;;;;;;;3.58;1.58;;;21.60;91.20;;;;;;4947180;28;20024;-81
2023/08/26 10:03:49;;;;;;;2.03;1.58;;;21.80;92.10;;;;;;4937164;29;20219;-82
2023/08/26 10:06:17;;;;;;;2.35;1.75;;;21.90;90.90;;;;;;4945287;29;20118;-82
2023/08/26 10:08:50;;;;;;;4.10;2.20;;;21.90;91.60;;;;;;4944688;29;20030;-83
2023/08/26 10:11:19;;;;;;;2.13;1.75;;;21.80;91.10;;;;;;4940358;28;20020;-82
2023/08/26 10:13:50;;;;;;;2.13;1.83;;;21.50;91.70;;;;;;4941087;28;20454;-80
2023/08/26 10:16:19;;;;;;;6.25;1.90;;;21.80;91.30;;;;;;4942947;28;20131;-83
2023/08/26 10:18:54;;;;;;;2.20;2.00;;;21.80;90.30;;;;;;4943151;29;20074;-83
2023/08/26 10:21:21;;;;;;;7.93;2.13;;;21.90;90.50;;;;;;4957559;28;20098;-83
2023/08/26 10:26:26;;;;;;;4.18;1.73;;;22.50;90.50;;;;;;4986303;23;20496;-82
2023/08/26 10:28:55;;;;;;;6.50;2.33;;;22.60;91.00;;;;;;4921174;29;20056;-84
2023/08/26 10:31:20;;;;;;;4.30;1.60;;;22.60;89.30;;;;;;4917864;29;20035;-83
2023/08/26 10:34:08;;;;;;;4.20;1.85;;;22.50;89.10;;;;;;4924751;29;20503;-82
2023/08/26 10:36:35;;;;;;;5.60;2.10;;;22.50;87.60;;;;;;4919342;29;20399;-81
2023/08/26 10:39:02;;;;;;;2.33;2.03;;;22.60;89.20;;;;;;4919376;29;20056;-85
2023/08/26 10:41:28;;;;;;;3.53;1.63;;;22.60;87.50;;;;;;4923684;29;20032;-84
2023/08/26 10:44:01;;;;;;;4.38;1.67;;;22.70;87.90;;;;;;4915225;29;20056;-83
2023/08/26 10:46:34;;;;;;;4.35;1.75;;;22.80;87.40;;;;;;4917779;29;20926;-85
2023/08/26 10:49:01;;;;;;;2.58;1.42;;;22.60;86.10;;;;;;4925606;29;20082;-85
2023/08/26 10:51:27;;;;;;;3.60;1.38;;;22.10;89.40;;;;;;4926625;29;20036;-88
2023/08/26 10:54:01;;;;;;;2.22;1.75;;;21.90;87.50;;;;;;4920521;29;20350;-81
2023/08/26 10:56:33;;;;;;;3.88;1.67;;;22.10;89.00;;;;;;4916926;29;20587;-82
2023/08/26 10:59:06;;;;;;;3.80;1.77;;;21.70;90.00;;;;;;4918162;29;20044;-82
2023/08/26 11:01:38;;;;;;;;;;;21.60;90.30;;;;;;4920524;29;20050;-82
2023/08/26 11:04:05;;;;;;;2.95;1.60;;;21.70;90.10;;;;;;4918836;29;19951;-82
2023/08/26 11:06:38;;;;;;;3.72;1.70;;;21.90;89.40;;;;;;4916802;29;20027;-83
2023/08/26 11:09:04;;;;;;;4.35;1.70;;;21.90;90.00;;;;;;4915973;29;21091;-82
2023/08/26 11:11:30;;;;;;;2.42;1.73;;;21.40;89.80;;;;;;4916348;29;20043;-84
2023/08/26 11:13:56;;;;;;;9.50;2.47;;;21.50;90.10;;;;;;4918739;29;20023;-82
2023/08/26 11:16:21;;;;;;;1.88;1.77;;;21.80;90.70;;;;;;4922365;29;20031;-85
2023/08/26 11:18:52;;;;;;;2.88;2.20;;;22.00;89.90;;;;;;4914955;29;20038;-83
2023/08/26 11:21:20;;;;;;;3.85;2.15;;;22.40;90.40;;;;;;4920789;29;20078;-83
2023/08/26 11:23:47;;;;;;;2.42;2.03;;;22.40;86.40;;;;;;4919643;29;20036;-82
2023/08/26 11:26:18;;;;;;;6.32;2.45;;;22.60;87.70;;;;;;4918270;29;20039;-83
2023/08/26 11:28:46;;;;;;;1.73;1.38;;;22.80;87.20;;;;;;4918955;29;20027;-84
2023/08/26 11:31:14;;;;;;;2.85;1.35;;;23.10;86.20;;;;;;4922881;29;20143;-85
2023/08/26 11:33:40;;;;;;;3.25;1.65;;;23.00;83.90;;;;;;4915761;29;20027;-82
2023/08/26 11:36:05;;;;;;;4.85;1.70;;;22.90;85.10;;;;;;4919315;29;20594;-84
2023/08/26 11:38:35;;;;;;;2.08;1.70;;;23.00;85.40;;;;;;4923059;29;20073;-83
2023/08/26 11:41:07;;;;;;;2.25;1.83;;;23.20;84.30;;;;;;4919022;29;20039;-88
2023/08/26 11:43:36;;;;;;;2.35;1.98;;;23.20;83.60;;;;;;4931970;29;20028;-82
2023/08/26 11:46:02;;;;;;;2.17;1.98;;;23.10;84.80;;;;;;4925182;29;20485;-82
2023/08/26 11:48:28;;;;;;;2.13;1.92;;;23.00;83.50;;;;;;4921897;29;20032;-83
2023/08/26 11:51:02;;;;;;;4.45;2.65;;;23.20;83.30;;;;;;4918877;29;20040;-85
2023/08/26 11:53:28;;;;;;;1.95;1.80;;;23.40;84.40;;;;;;4914325;29;20028;-83
2023/08/26 11:55:54;;;;;;;4.30;1.90;;;23.50;80.90;;;;;;4920469;29;20040;-84
2023/08/26 11:58:20;;;;;;;6.68;2.33;;;23.40;80.90;;;;;;4919586;29;20023;-84
2023/08/26 12:00:47;;;;;;;6.80;1.90;;;23.00;83.00;;;;;;4913402;29;20811;-83
2023/08/26 12:03:17;;;;;;;2.78;1.73;;;23.10;84.00;;;;;;4917364;29;20500;-83
2023/08/26 12:05:43;;;;;;;3.28;2.30;;;23.40;83.40;;;;;;4920875;29;20036;-82
2023/08/26 12:08:14;;;;;;;1.90;1.80;;;23.20;83.90;;;;;;4916958;29;20028;-83
2023/08/26 12:10:40;;;;;;;4.90;1.70;;;23.20;83.70;;;;;;4916623;29;20441;-83
2023/08/26 12:13:06;;;;;;;1.63;1.52;;;23.20;82.70;;;;;;4913662;29;20426;-83
2023/08/26 12:15:32;;;;;;;3.20;1.55;;;23.30;81.60;;;;;;4922004;29;20024;-83
2023/08/26 12:18:00;;;;;;;2.97;1.60;;;23.20;81.30;;;;;;4923534;29;20477;-83
2023/08/26 12:20:27;;;;;;;1.90;1.80;;;23.40;82.50;;;;;;4920372;29;20042;-83
2023/08/26 12:22:54;;;;;;;1.75;1.63;;;23.20;80.70;;;;;;4923936;29;20060;-82
2023/08/26 12:25:24;;;;;;;3.85;2.45;;;22.60;83.30;;;;;;4917410;29;20050;-82
2023/08/26 12:27:50;;;;;;;2.28;2.17;;;22.70;82.80;;;;;;4916676;29;20044;-82
2023/08/26 12:30:23;;;;;;;4.50;2.70;;;22.80;82.70;;;;;;4917041;29;20024;-80
2023/08/26 12:32:48;;;;;;;2.72;2.20;;;22.80;81.90;;;;;;4915701;29;20079;-81
2023/08/26 12:35:14;;;;;;;2.28;2.08;;;22.80;82.80;;;;;;4917131;29;20032;-81
2023/08/26 12:37:42;;;;;;;3.63;2.08;;;22.80;83.00;;;;;;4918015;29;20020;-81
2023/08/26 12:40:08;;;;;;;3.15;2.05;;;22.70;82.70;;;;;;4925356;29;20240;-81
2023/08/26 12:42:34;;;;;;;2.53;2.13;;;22.60;81.30;;;;;;4916922;29;20050;-81